sensor_id;sensor_type;location;lat;lon;timestamp;P1;durP1;ratioP1;P2;durP2;ratioP2
44169;SDS011;29836;52.286;9.576;2023-01-10T00:00:26;14.27;;;6.57;;
44169;SDS011;29836;52.286;9.576;2023-01-10T00:02:58;15.55;;;6.97;;
44169;SDS011;29836;52.286;9.576;2023-01-10T00:05:24;13.10;;;6.40;;
44169;SDS011;29836;52.286;9.576;2023-01-10T00:07:50;14.73;;;6.65;;
44169;SDS011;29836;52.286;9.576;2023-01-10T00:10:15;16.70;;;7.65;;
44169;SDS011;29836;52.286;9.576;2023-01-10T00:12:41;18.65;;;6.57;;
44169;SDS011;29836;52.286;9.576;2023-01-10T00:15:25;20.13;;;7.07;;
44169;SDS011;29836;52.286;9.576;2023-01-10T00:17:51;19.75;;;7.32;;
44169;SDS011;29836;52.286;9.576;2023-01-10T00:20:16;15.70;;;7.43;;
44169;SDS011;29836;52.286;9.576;2023-01-10T00:22:42;19.60;;;8.38;;
44169;SDS011;29836;52.286;9.576;2023-01-10T00:25:09;16.30;;;7.07;;
44169;SDS011;29836;52.286;9.576;2023-01-10T00:27:35;18.25;;;7.38;;
44169;SDS011;29836;52.286;9.576;2023-01-10T00:30:00;20.42;;;6.75;;
44169;SDS011;29836;52.286;9.576;2023-01-10T00:32:37;11.10;;;5.50;;
44169;SDS011;29836;52.286;9.576;2023-01-10T00:35:04;13.40;;;6.30;;
44169;SDS011;29836;52.286;9.576;2023-01-10T00:37:30;11.27;;;5.00;;
44169;SDS011;29836;52.286;9.576;2023-01-10T00:39:56;15.93;;;6.55;;
44169;SDS011;29836;52.286;9.576;2023-01-10T00:42:22;15.50;;;6.78;;
44169;SDS011;29836;52.286;9.576;2023-01-10T00:45:06;9.85;;;5.57;;
44169;SDS011;29836;52.286;9.576;2023-01-10T00:47:32;11.43;;;6.28;;
44169;SDS011;29836;52.286;9.576;2023-01-10T00:49:58;15.52;;;7.22;;
44169;SDS011;29836;52.286;9.576;2023-01-10T00:52:23;12.80;;;6.38;;
44169;SDS011;29836;52.286;9.576;2023-01-10T00:54:49;22.88;;;7.65;;
44169;SDS011;29836;52.286;9.576;2023-01-10T00:57:14;11.70;;;5.50;;
44169;SDS011;29836;52.286;9.576;2023-01-10T00:59:40;11.20;;;6.13;;
44169;SDS011;29836;52.286;9.576;2023-01-10T01:02:05;15.60;;;5.75;;
44169;SDS011;29836;52.286;9.576;2023-01-10T01:04:31;13.52;;;6.18;;
44169;SDS011;29836;52.286;9.576;2023-01-10T01:07:00;13.48;;;5.60;;
44169;SDS011;29836;52.286;9.576;2023-01-10T01:09:26;11.88;;;6.28;;
44169;SDS011;29836;52.286;9.576;2023-01-10T01:11:53;18.90;;;6.80;;
44169;SDS011;29836;52.286;9.576;2023-01-10T01:14:20;17.50;;;6.47;;
44169;SDS011;29836;52.286;9.576;2023-01-10T01:16:46;16.60;;;5.97;;
44169;SDS011;29836;52.286;9.576;2023-01-10T01:19:11;13.75;;;6.25;;
44169;SDS011;29836;52.286;9.576;2023-01-10T01:21:37;14.60;;;6.85;;
44169;SDS011;29836;52.286;9.576;2023-01-10T01:24:02;15.32;;;6.05;;
44169;SDS011;29836;52.286;9.576;2023-01-10T01:26:28;13.60;;;5.43;;
44169;SDS011;29836;52.286;9.576;2023-01-10T01:28:54;12.13;;;6.35;;
44169;SDS011;29836;52.286;9.576;2023-01-10T01:31:20;11.43;;;5.53;;
44169;SDS011;29836;52.286;9.576;2023-01-10T01:33:45;10.40;;;5.82;;
44169;SDS011;29836;52.286;9.576;2023-01-10T01:36:11;12.68;;;5.50;;
44169;SDS011;29836;52.286;9.576;2023-01-10T01:38:37;11.57;;;5.40;;
44169;SDS011;29836;52.286;9.576;2023-01-10T01:41:04;14.13;;;5.25;;
44169;SDS011;29836;52.286;9.576;2023-01-10T01:44:01;9.18;;;4.95;;
44169;SDS011;29836;52.286;9.576;2023-01-10T01:46:36;12.20;;;5.45;;
44169;SDS011;29836;52.286;9.576;2023-01-10T01:49:03;12.75;;;5.40;;
44169;SDS011;29836;52.286;9.576;2023-01-10T01:51:33;10.85;;;4.63;;
44169;SDS011;29836;52.286;9.576;2023-01-10T01:54:00;15.70;;;4.80;;
44169;SDS011;29836;52.286;9.576;2023-01-10T01:56:31;9.52;;;5.10;;
44169;SDS011;29836;52.286;9.576;2023-01-10T02:01:30;10.40;;;3.90;;
44169;SDS011;29836;52.286;9.576;2023-01-10T02:04:00;6.72;;;3.92;;
44169;SDS011;29836;52.286;9.576;2023-01-10T02:06:31;8.90;;;4.00;;
44169;SDS011;29836;52.286;9.576;2023-01-10T02:09:02;11.73;;;4.22;;
44169;SDS011;29836;52.286;9.576;2023-01-10T02:11:34;16.20;;;4.45;;
44169;SDS011;29836;52.286;9.576;2023-01-10T02:14:00;10.35;;;4.65;;
44169;SDS011;29836;52.286;9.576;2023-01-10T02:16:29;8.50;;;4.28;;
44169;SDS011;29836;52.286;9.576;2023-01-10T02:18:54;10.57;;;4.63;;
44169;SDS011;29836;52.286;9.576;2023-01-10T02:23:59;9.00;;;4.03;;
44169;SDS011;29836;52.286;9.576;2023-01-10T02:26:56;10.45;;;3.78;;
44169;SDS011;29836;52.286;9.576;2023-01-10T02:34:54;5.93;;;2.58;;
44169;SDS011;29836;52.286;9.576;2023-01-10T02:37:29;6.05;;;3.20;;
44169;SDS011;29836;52.286;9.576;2023-01-10T02:40:03;7.07;;;2.35;;
44169;SDS011;29836;52.286;9.576;2023-01-10T02:42:38;11.00;;;2.20;;
44169;SDS011;29836;52.286;9.576;2023-01-10T02:45:28;4.80;;;2.55;;
44169;SDS011;29836;52.286;9.576;2023-01-10T02:50:32;7.90;;;3.03;;
44169;SDS011;29836;52.286;9.576;2023-01-10T02:53:04;8.60;;;3.17;;
44169;SDS011;29836;52.286;9.576;2023-01-10T02:55:55;6.22;;;2.30;;
44169;SDS011;29836;52.286;9.576;2023-01-10T03:03:51;4.88;;;2.17;;
44169;SDS011;29836;52.286;9.576;2023-01-10T03:06:38;5.60;;;2.27;;
44169;SDS011;29836;52.286;9.576;2023-01-10T03:09:10;4.47;;;2.17;;
44169;SDS011;29836;52.286;9.576;2023-01-10T03:12:02;2.92;;;1.83;;
44169;SDS011;29836;52.286;9.576;2023-01-10T03:14:37;10.13;;;1.65;;
44169;SDS011;29836;52.286;9.576;2023-01-10T03:17:05;6.10;;;1.70;;
44169;SDS011;29836;52.286;9.576;2023-01-10T03:19:34;4.90;;;1.85;;
44169;SDS011;29836;52.286;9.576;2023-01-10T03:22:04;7.25;;;1.63;;
44169;SDS011;29836;52.286;9.576;2023-01-10T03:24:34;3.78;;;2.05;;
44169;SDS011;29836;52.286;9.576;2023-01-10T03:27:06;4.85;;;1.33;;
44169;SDS011;29836;52.286;9.576;2023-01-10T03:29:48;4.30;;;1.70;;
44169;SDS011;29836;52.286;9.576;2023-01-10T03:32:21;7.60;;;2.05;;
44169;SDS011;29836;52.286;9.576;2023-01-10T03:34:50;6.97;;;2.30;;
44169;SDS011;29836;52.286;9.576;2023-01-10T03:39:57;6.22;;;2.05;;
44169;SDS011;29836;52.286;9.576;2023-01-10T03:42:51;6.45;;;2.35;;
44169;SDS011;29836;52.286;9.576;2023-01-10T03:45:50;11.55;;;3.45;;
44169;SDS011;29836;52.286;9.576;2023-01-10T03:48:22;9.30;;;2.85;;
44169;SDS011;29836;52.286;9.576;2023-01-10T03:50:53;7.00;;;2.03;;
44169;SDS011;29836;52.286;9.576;2023-01-10T03:53:20;8.52;;;2.90;;
44169;SDS011;29836;52.286;9.576;2023-01-10T03:55:46;4.30;;;2.40;;
44169;SDS011;29836;52.286;9.576;2023-01-10T03:58:11;12.30;;;3.08;;
44169;SDS011;29836;52.286;9.576;2023-01-10T04:00:37;10.50;;;2.55;;
44169;SDS011;29836;52.286;9.576;2023-01-10T04:03:03;19.05;;;3.53;;
44169;SDS011;29836;52.286;9.576;2023-01-10T04:05:29;6.35;;;2.45;;
44169;SDS011;29836;52.286;9.576;2023-01-10T04:07:54;12.75;;;3.10;;
44169;SDS011;29836;52.286;9.576;2023-01-10T04:10:20;7.85;;;2.92;;
44169;SDS011;29836;52.286;9.576;2023-01-10T04:12:45;4.75;;;2.25;;
44169;SDS011;29836;52.286;9.576;2023-01-10T04:15:11;10.73;;;2.58;;
44169;SDS011;29836;52.286;9.576;2023-01-10T04:17:37;10.98;;;2.95;;
44169;SDS011;29836;52.286;9.576;2023-01-10T04:20:02;9.48;;;2.63;;
44169;SDS011;29836;52.286;9.576;2023-01-10T04:22:28;9.82;;;2.95;;
44169;SDS011;29836;52.286;9.576;2023-01-10T04:24:53;10.85;;;2.75;;
44169;SDS011;29836;52.286;9.576;2023-01-10T04:27:19;19.15;;;4.25;;
44169;SDS011;29836;52.286;9.576;2023-01-10T04:29:45;12.23;;;3.47;;
44169;SDS011;29836;52.286;9.576;2023-01-10T04:32:11;7.57;;;3.05;;
44169;SDS011;29836;52.286;9.576;2023-01-10T04:34:37;10.95;;;2.72;;
44169;SDS011;29836;52.286;9.576;2023-01-10T04:37:02;11.35;;;3.88;;
44169;SDS011;29836;52.286;9.576;2023-01-10T04:39:28;9.77;;;2.95;;
44169;SDS011;29836;52.286;9.576;2023-01-10T04:41:53;12.57;;;3.80;;
44169;SDS011;29836;52.286;9.576;2023-01-10T04:44:19;10.45;;;3.22;;
44169;SDS011;29836;52.286;9.576;2023-01-10T04:46:44;4.63;;;2.47;;
44169;SDS011;29836;52.286;9.576;2023-01-10T04:49:10;10.38;;;3.03;;
44169;SDS011;29836;52.286;9.576;2023-01-10T04:51:35;18.02;;;4.20;;
44169;SDS011;29836;52.286;9.576;2023-01-10T04:54:01;7.82;;;3.33;;
44169;SDS011;29836;52.286;9.576;2023-01-10T04:56:27;9.77;;;2.83;;
44169;SDS011;29836;52.286;9.576;2023-01-10T04:58:52;11.38;;;4.43;;
44169;SDS011;29836;52.286;9.576;2023-01-10T05:01:19;13.32;;;3.40;;
44169;SDS011;29836;52.286;9.576;2023-01-10T05:03:47;9.75;;;3.00;;
44169;SDS011;29836;52.286;9.576;2023-01-10T05:06:13;8.32;;;3.25;;
44169;SDS011;29836;52.286;9.576;2023-01-10T05:08:39;12.13;;;3.88;;
44169;SDS011;29836;52.286;9.576;2023-01-10T05:11:04;15.20;;;3.80;;
44169;SDS011;29836;52.286;9.576;2023-01-10T05:13:30;7.55;;;3.45;;
44169;SDS011;29836;52.286;9.576;2023-01-10T05:15:56;13.75;;;3.50;;
44169;SDS011;29836;52.286;9.576;2023-01-10T05:18:22;11.02;;;3.47;;
44169;SDS011;29836;52.286;9.576;2023-01-10T05:20:49;10.98;;;4.03;;
44169;SDS011;29836;52.286;9.576;2023-01-10T05:23:15;9.30;;;4.38;;
44169;SDS011;29836;52.286;9.576;2023-01-10T05:25:40;12.23;;;3.88;;
44169;SDS011;29836;52.286;9.576;2023-01-10T05:28:06;10.07;;;3.42;;
44169;SDS011;29836;52.286;9.576;2023-01-10T05:30:32;12.38;;;5.00;;
44169;SDS011;29836;52.286;9.576;2023-01-10T05:32:58;8.30;;;4.13;;
44169;SDS011;29836;52.286;9.576;2023-01-10T05:35:23;8.25;;;3.47;;
44169;SDS011;29836;52.286;9.576;2023-01-10T05:37:49;11.50;;;3.97;;
44169;SDS011;29836;52.286;9.576;2023-01-10T05:40:14;12.65;;;3.58;;
44169;SDS011;29836;52.286;9.576;2023-01-10T05:42:40;16.67;;;2.95;;
44169;SDS011;29836;52.286;9.576;2023-01-10T05:45:06;16.45;;;4.47;;
44169;SDS011;29836;52.286;9.576;2023-01-10T05:47:32;10.95;;;5.30;;
44169;SDS011;29836;52.286;9.576;2023-01-10T05:49:58;12.95;;;4.70;;
44169;SDS011;29836;52.286;9.576;2023-01-10T05:52:23;14.30;;;4.45;;
44169;SDS011;29836;52.286;9.576;2023-01-10T05:54:49;8.20;;;3.28;;
44169;SDS011;29836;52.286;9.576;2023-01-10T05:57:14;18.73;;;5.53;;
44169;SDS011;29836;52.286;9.576;2023-01-10T05:59:40;13.90;;;5.00;;
44169;SDS011;29836;52.286;9.576;2023-01-10T06:02:05;11.38;;;4.65;;
44169;SDS011;29836;52.286;9.576;2023-01-10T06:04:31;10.02;;;4.47;;
44169;SDS011;29836;52.286;9.576;2023-01-10T06:06:57;9.68;;;4.28;;
44169;SDS011;29836;52.286;9.576;2023-01-10T06:09:22;12.15;;;5.07;;
44169;SDS011;29836;52.286;9.576;2023-01-10T06:11:48;11.65;;;4.35;;
44169;SDS011;29836;52.286;9.576;2023-01-10T06:14:13;14.38;;;4.68;;
44169;SDS011;29836;52.286;9.576;2023-01-10T06:16:43;16.98;;;4.72;;
44169;SDS011;29836;52.286;9.576;2023-01-10T06:19:12;14.73;;;4.95;;
44169;SDS011;29836;52.286;9.576;2023-01-10T06:21:37;21.70;;;5.60;;
44169;SDS011;29836;52.286;9.576;2023-01-10T06:24:03;16.15;;;4.45;;
44169;SDS011;29836;52.286;9.576;2023-01-10T06:26:28;15.00;;;4.72;;
44169;SDS011;29836;52.286;9.576;2023-01-10T06:28:54;18.58;;;4.28;;
44169;SDS011;29836;52.286;9.576;2023-01-10T06:31:20;27.92;;;5.70;;
44169;SDS011;29836;52.286;9.576;2023-01-10T06:33:45;20.90;;;5.15;;
44169;SDS011;29836;52.286;9.576;2023-01-10T06:36:14;13.05;;;5.05;;
44169;SDS011;29836;52.286;9.576;2023-01-10T06:38:40;13.25;;;4.63;;
44169;SDS011;29836;52.286;9.576;2023-01-10T06:41:05;14.73;;;4.65;;
44169;SDS011;29836;52.286;9.576;2023-01-10T06:46:06;14.57;;;4.18;;
44169;SDS011;29836;52.286;9.576;2023-01-10T06:48:33;14.55;;;4.45;;
44169;SDS011;29836;52.286;9.576;2023-01-10T06:51:00;16.90;;;4.45;;
44169;SDS011;29836;52.286;9.576;2023-01-10T06:53:25;13.75;;;4.80;;
44169;SDS011;29836;52.286;9.576;2023-01-10T06:55:52;14.32;;;5.20;;
44169;SDS011;29836;52.286;9.576;2023-01-10T06:58:18;11.02;;;4.28;;
44169;SDS011;29836;52.286;9.576;2023-01-10T07:00:45;13.35;;;4.90;;
44169;SDS011;29836;52.286;9.576;2023-01-10T07:03:10;9.48;;;4.47;;
44169;SDS011;29836;52.286;9.576;2023-01-10T07:05:36;11.70;;;4.07;;
44169;SDS011;29836;52.286;9.576;2023-01-10T07:08:01;11.93;;;5.53;;
44169;SDS011;29836;52.286;9.576;2023-01-10T07:10:27;12.35;;;4.68;;
44169;SDS011;29836;52.286;9.576;2023-01-10T07:12:53;13.45;;;4.75;;
44169;SDS011;29836;52.286;9.576;2023-01-10T07:15:19;13.00;;;4.88;;
44169;SDS011;29836;52.286;9.576;2023-01-10T07:17:45;16.08;;;4.80;;
44169;SDS011;29836;52.286;9.576;2023-01-10T07:20:10;12.68;;;3.80;;
44169;SDS011;29836;52.286;9.576;2023-01-10T07:22:36;16.63;;;4.80;;
44169;SDS011;29836;52.286;9.576;2023-01-10T07:25:02;10.88;;;4.70;;
44169;SDS011;29836;52.286;9.576;2023-01-10T07:27:31;8.32;;;3.63;;
44169;SDS011;29836;52.286;9.576;2023-01-10T07:29:57;15.43;;;5.18;;
44169;SDS011;29836;52.286;9.576;2023-01-10T07:32:23;8.60;;;5.03;;
44169;SDS011;29836;52.286;9.576;2023-01-10T07:34:49;18.55;;;5.00;;
44169;SDS011;29836;52.286;9.576;2023-01-10T07:37:15;14.10;;;4.88;;
44169;SDS011;29836;52.286;9.576;2023-01-10T07:39:40;8.07;;;3.97;;
44169;SDS011;29836;52.286;9.576;2023-01-10T07:42:07;8.80;;;4.30;;
44169;SDS011;29836;52.286;9.576;2023-01-10T07:44:33;10.57;;;5.10;;
44169;SDS011;29836;52.286;9.576;2023-01-10T07:46:59;10.60;;;4.70;;
44169;SDS011;29836;52.286;9.576;2023-01-10T07:49:24;11.10;;;4.25;;
44169;SDS011;29836;52.286;9.576;2023-01-10T07:51:50;12.63;;;4.57;;
44169;SDS011;29836;52.286;9.576;2023-01-10T07:54:16;12.52;;;4.28;;
44169;SDS011;29836;52.286;9.576;2023-01-10T07:56:41;12.65;;;4.55;;
44169;SDS011;29836;52.286;9.576;2023-01-10T07:59:07;10.40;;;4.10;;
44169;SDS011;29836;52.286;9.576;2023-01-10T08:01:32;11.68;;;4.85;;
44169;SDS011;29836;52.286;9.576;2023-01-10T08:03:58;8.02;;;3.22;;
44169;SDS011;29836;52.286;9.576;2023-01-10T08:06:23;9.10;;;4.03;;
44169;SDS011;29836;52.286;9.576;2023-01-10T08:08:49;12.13;;;4.30;;
44169;SDS011;29836;52.286;9.576;2023-01-10T08:11:15;14.50;;;4.72;;
44169;SDS011;29836;52.286;9.576;2023-01-10T08:13:40;11.73;;;4.45;;
44169;SDS011;29836;52.286;9.576;2023-01-10T08:16:06;8.98;;;4.50;;
44169;SDS011;29836;52.286;9.576;2023-01-10T08:18:32;8.40;;;4.03;;
44169;SDS011;29836;52.286;9.576;2023-01-10T08:20:58;7.75;;;4.00;;
44169;SDS011;29836;52.286;9.576;2023-01-10T08:23:25;14.10;;;4.63;;
44169;SDS011;29836;52.286;9.576;2023-01-10T08:25:50;12.02;;;4.35;;
44169;SDS011;29836;52.286;9.576;2023-01-10T08:28:16;12.90;;;4.50;;
44169;SDS011;29836;52.286;9.576;2023-01-10T08:30:42;11.55;;;4.55;;
44169;SDS011;29836;52.286;9.576;2023-01-10T08:33:08;13.85;;;4.40;;
44169;SDS011;29836;52.286;9.576;2023-01-10T08:35:36;10.00;;;4.75;;
44169;SDS011;29836;52.286;9.576;2023-01-10T08:38:02;12.20;;;4.93;;
44169;SDS011;29836;52.286;9.576;2023-01-10T08:40:28;21.13;;;6.05;;
44169;SDS011;29836;52.286;9.576;2023-01-10T08:43:00;14.10;;;5.28;;
44169;SDS011;29836;52.286;9.576;2023-01-10T08:45:27;15.02;;;5.72;;
44169;SDS011;29836;52.286;9.576;2023-01-10T08:47:52;15.90;;;5.38;;
44169;SDS011;29836;52.286;9.576;2023-01-10T08:50:18;9.70;;;5.60;;
44169;SDS011;29836;52.286;9.576;2023-01-10T08:52:44;10.48;;;4.95;;
44169;SDS011;29836;52.286;9.576;2023-01-10T08:55:09;18.33;;;6.22;;
44169;SDS011;29836;52.286;9.576;2023-01-10T08:57:35;17.25;;;5.53;;
44169;SDS011;29836;52.286;9.576;2023-01-10T09:00:01;12.23;;;5.35;;
44169;SDS011;29836;52.286;9.576;2023-01-10T09:02:27;13.68;;;5.63;;
44169;SDS011;29836;52.286;9.576;2023-01-10T09:04:53;20.15;;;7.45;;
44169;SDS011;29836;52.286;9.576;2023-01-10T09:07:18;12.40;;;6.10;;
44169;SDS011;29836;52.286;9.576;2023-01-10T09:09:44;16.42;;;6.13;;
44169;SDS011;29836;52.286;9.576;2023-01-10T09:12:09;23.38;;;6.03;;
44169;SDS011;29836;52.286;9.576;2023-01-10T09:14:53;16.35;;;5.70;;
44169;SDS011;29836;52.286;9.576;2023-01-10T09:17:19;10.52;;;5.30;;
44169;SDS011;29836;52.286;9.576;2023-01-10T09:19:45;16.05;;;6.50;;
44169;SDS011;29836;52.286;9.576;2023-01-10T09:22:10;13.68;;;5.00;;
44169;SDS011;29836;52.286;9.576;2023-01-10T09:24:36;10.32;;;4.82;;
44169;SDS011;29836;52.286;9.576;2023-01-10T09:27:03;21.13;;;5.05;;
44169;SDS011;29836;52.286;9.576;2023-01-10T09:29:28;20.05;;;5.03;;
44169;SDS011;29836;52.286;9.576;2023-01-10T09:31:54;20.80;;;5.53;;
44169;SDS011;29836;52.286;9.576;2023-01-10T09:34:19;11.52;;;4.05;;
44169;SDS011;29836;52.286;9.576;2023-01-10T09:36:46;15.57;;;4.22;;
44169;SDS011;29836;52.286;9.576;2023-01-10T09:39:12;16.08;;;5.20;;
44169;SDS011;29836;52.286;9.576;2023-01-10T09:44:29;15.25;;;5.13;;
44169;SDS011;29836;52.286;9.576;2023-01-10T09:50:11;8.32;;;4.75;;
44169;SDS011;29836;52.286;9.576;2023-01-10T09:52:57;15.07;;;5.35;;
44169;SDS011;29836;52.286;9.576;2023-01-10T09:55:29;11.52;;;4.32;;
44169;SDS011;29836;52.286;9.576;2023-01-10T09:57:59;15.23;;;5.63;;
44169;SDS011;29836;52.286;9.576;2023-01-10T10:00:40;10.25;;;4.82;;
44169;SDS011;29836;52.286;9.576;2023-01-10T10:03:15;18.27;;;5.97;;
44169;SDS011;29836;52.286;9.576;2023-01-10T10:05:55;12.80;;;6.60;;
44169;SDS011;29836;52.286;9.576;2023-01-10T10:08:21;18.40;;;5.60;;
44169;SDS011;29836;52.286;9.576;2023-01-10T10:21:52;13.25;;;4.93;;
44169;SDS011;29836;52.286;9.576;2023-01-10T10:27:47;11.20;;;4.47;;
44169;SDS011;29836;52.286;9.576;2023-01-10T10:35:40;12.52;;;4.40;;
44169;SDS011;29836;52.286;9.576;2023-01-10T10:38:20;12.52;;;4.15;;
44169;SDS011;29836;52.286;9.576;2023-01-10T10:40:50;10.68;;;4.43;;
44169;SDS011;29836;52.286;9.576;2023-01-10T10:43:20;11.25;;;3.83;;
44169;SDS011;29836;52.286;9.576;2023-01-10T10:45:51;9.88;;;3.97;;
44169;SDS011;29836;52.286;9.576;2023-01-10T10:48:24;17.13;;;4.18;;
44169;SDS011;29836;52.286;9.576;2023-01-10T10:51:03;8.98;;;4.53;;
44169;SDS011;29836;52.286;9.576;2023-01-10T10:53:37;10.07;;;4.20;;
44169;SDS011;29836;52.286;9.576;2023-01-10T10:56:04;9.63;;;4.13;;
44169;SDS011;29836;52.286;9.576;2023-01-10T10:58:34;8.00;;;4.10;;
44169;SDS011;29836;52.286;9.576;2023-01-10T11:01:00;10.82;;;3.90;;
44169;SDS011;29836;52.286;9.576;2023-01-10T11:03:40;15.73;;;4.90;;
44169;SDS011;29836;52.286;9.576;2023-01-10T11:06:07;8.93;;;4.03;;
44169;SDS011;29836;52.286;9.576;2023-01-10T11:08:34;18.00;;;3.85;;
44169;SDS011;29836;52.286;9.576;2023-01-10T11:11:05;8.48;;;4.45;;
44169;SDS011;29836;52.286;9.576;2023-01-10T11:13:48;14.13;;;3.53;;
44169;SDS011;29836;52.286;9.576;2023-01-10T11:19:10;9.88;;;4.78;;
44169;SDS011;29836;52.286;9.576;2023-01-10T11:21:49;8.95;;;4.35;;
44169;SDS011;29836;52.286;9.576;2023-01-10T11:24:37;13.93;;;4.30;;
44169;SDS011;29836;52.286;9.576;2023-01-10T11:27:14;11.30;;;4.35;;
44169;SDS011;29836;52.286;9.576;2023-01-10T11:29:46;11.82;;;4.53;;
44169;SDS011;29836;52.286;9.576;2023-01-10T11:32:19;16.52;;;4.78;;
44169;SDS011;29836;52.286;9.576;2023-01-10T11:35:21;12.73;;;3.35;;
44169;SDS011;29836;52.286;9.576;2023-01-10T11:37:44;21.88;;;5.25;;
44169;SDS011;29836;52.286;9.576;2023-01-10T11:40:25;7.00;;;3.97;;
44169;SDS011;29836;52.286;9.576;2023-01-10T11:42:52;13.07;;;4.75;;
44169;SDS011;29836;52.286;9.576;2023-01-10T11:47:49;9.60;;;3.97;;
44169;SDS011;29836;52.286;9.576;2023-01-10T11:50:32;10.68;;;3.60;;
44169;SDS011;29836;52.286;9.576;2023-01-10T11:53:00;10.25;;;3.75;;
44169;SDS011;29836;52.286;9.576;2023-01-10T11:55:27;14.45;;;4.75;;
44169;SDS011;29836;52.286;9.576;2023-01-10T11:57:56;14.10;;;4.18;;
44169;SDS011;29836;52.286;9.576;2023-01-10T12:00:29;13.88;;;4.05;;
44169;SDS011;29836;52.286;9.576;2023-01-10T12:02:56;13.35;;;3.72;;
44169;SDS011;29836;52.286;9.576;2023-01-10T12:05:22;16.10;;;4.10;;
44169;SDS011;29836;52.286;9.576;2023-01-10T12:07:58;10.32;;;3.53;;
44169;SDS011;29836;52.286;9.576;2023-01-10T12:10:30;22.05;;;3.70;;
44169;SDS011;29836;52.286;9.576;2023-01-10T12:12:57;11.27;;;3.50;;
44169;SDS011;29836;52.286;9.576;2023-01-10T12:15:26;15.88;;;4.72;;
44169;SDS011;29836;52.286;9.576;2023-01-10T12:17:57;13.52;;;3.78;;
44169;SDS011;29836;52.286;9.576;2023-01-10T12:20:28;9.52;;;3.35;;
44169;SDS011;29836;52.286;9.576;2023-01-10T12:22:59;15.15;;;4.03;;
44169;SDS011;29836;52.286;9.576;2023-01-10T12:25:30;9.80;;;3.58;;
44169;SDS011;29836;52.286;9.576;2023-01-10T12:28:01;9.60;;;2.92;;
44169;SDS011;29836;52.286;9.576;2023-01-10T12:30:31;11.30;;;2.88;;
44169;SDS011;29836;52.286;9.576;2023-01-10T12:33:00;7.90;;;3.30;;
44169;SDS011;29836;52.286;9.576;2023-01-10T12:35:37;10.75;;;3.22;;
44169;SDS011;29836;52.286;9.576;2023-01-10T12:38:16;8.82;;;2.72;;
44169;SDS011;29836;52.286;9.576;2023-01-10T12:41:15;11.82;;;2.65;;
44169;SDS011;29836;52.286;9.576;2023-01-10T12:44:11;8.18;;;3.38;;
44169;SDS011;29836;52.286;9.576;2023-01-10T12:46:46;5.88;;;2.58;;
44169;SDS011;29836;52.286;9.576;2023-01-10T12:49:28;13.73;;;3.05;;
44169;SDS011;29836;52.286;9.576;2023-01-10T12:51:59;9.60;;;3.50;;
44169;SDS011;29836;52.286;9.576;2023-01-10T12:54:30;13.82;;;3.67;;
44169;SDS011;29836;52.286;9.576;2023-01-10T12:56:59;14.65;;;3.80;;
44169;SDS011;29836;52.286;9.576;2023-01-10T12:59:31;6.57;;;2.83;;
44169;SDS011;29836;52.286;9.576;2023-01-10T13:02:09;8.77;;;2.85;;
44169;SDS011;29836;52.286;9.576;2023-01-10T13:04:47;14.27;;;3.10;;
44169;SDS011;29836;52.286;9.576;2023-01-10T13:07:20;21.58;;;3.47;;
44169;SDS011;29836;52.286;9.576;2023-01-10T13:09:49;8.40;;;2.20;;
44169;SDS011;29836;52.286;9.576;2023-01-10T13:12:23;11.15;;;3.35;;
44169;SDS011;29836;52.286;9.576;2023-01-10T13:15:04;17.73;;;3.17;;
44169;SDS011;29836;52.286;9.576;2023-01-10T13:17:44;10.85;;;3.45;;
44169;SDS011;29836;52.286;9.576;2023-01-10T13:22:44;17.17;;;3.35;;
44169;SDS011;29836;52.286;9.576;2023-01-10T13:25:48;8.98;;;3.90;;
44169;SDS011;29836;52.286;9.576;2023-01-10T13:28:04;19.73;;;3.42;;
44169;SDS011;29836;52.286;9.576;2023-01-10T13:30:42;11.13;;;3.78;;
44169;SDS011;29836;52.286;9.576;2023-01-10T13:33:19;11.57;;;4.05;;
44169;SDS011;29836;52.286;9.576;2023-01-10T13:35:47;9.43;;;3.47;;
44169;SDS011;29836;52.286;9.576;2023-01-10T13:38:18;20.25;;;4.07;;
44169;SDS011;29836;52.286;9.576;2023-01-10T13:43:58;10.40;;;4.03;;
44169;SDS011;29836;52.286;9.576;2023-01-10T13:46:32;11.85;;;2.92;;
44169;SDS011;29836;52.286;9.576;2023-01-10T13:51:27;16.02;;;3.72;;
44169;SDS011;29836;52.286;9.576;2023-01-10T13:54:00;11.43;;;3.30;;
44169;SDS011;29836;52.286;9.576;2023-01-10T13:56:35;9.70;;;3.08;;
44169;SDS011;29836;52.286;9.576;2023-01-10T14:02:23;11.05;;;2.83;;
44169;SDS011;29836;52.286;9.576;2023-01-10T14:07:29;10.05;;;3.83;;
44169;SDS011;29836;52.286;9.576;2023-01-10T14:10:08;10.48;;;3.35;;
44169;SDS011;29836;52.286;9.576;2023-01-10T14:15:30;11.95;;;4.35;;
44169;SDS011;29836;52.286;9.576;2023-01-10T14:18:07;12.52;;;3.72;;
44169;SDS011;29836;52.286;9.576;2023-01-10T14:20:54;12.55;;;3.85;;
44169;SDS011;29836;52.286;9.576;2023-01-10T14:23:20;13.15;;;5.03;;
44169;SDS011;29836;52.286;9.576;2023-01-10T14:25:53;16.10;;;6.57;;
44169;SDS011;29836;52.286;9.576;2023-01-10T14:28:30;10.95;;;2.95;;
44169;SDS011;29836;52.286;9.576;2023-01-10T14:31:00;24.42;;;5.80;;
44169;SDS011;29836;52.286;9.576;2023-01-10T14:33:29;17.75;;;5.18;;
44169;SDS011;29836;52.286;9.576;2023-01-10T14:35:58;10.80;;;3.50;;
44169;SDS011;29836;52.286;9.576;2023-01-10T14:38:28;10.30;;;3.63;;
44169;SDS011;29836;52.286;9.576;2023-01-10T14:43:40;14.25;;;4.72;;
44169;SDS011;29836;52.286;9.576;2023-01-10T14:46:16;15.50;;;4.88;;
44169;SDS011;29836;52.286;9.576;2023-01-10T14:48:47;10.98;;;3.13;;
44169;SDS011;29836;52.286;9.576;2023-01-10T14:51:16;11.05;;;3.28;;
44169;SDS011;29836;52.286;9.576;2023-01-10T14:53:42;8.50;;;2.55;;
44169;SDS011;29836;52.286;9.576;2023-01-10T14:56:18;5.45;;;2.70;;
44169;SDS011;29836;52.286;9.576;2023-01-10T14:58:45;10.52;;;3.25;;
44169;SDS011;29836;52.286;9.576;2023-01-10T15:01:11;14.50;;;3.80;;
44169;SDS011;29836;52.286;9.576;2023-01-10T15:03:43;6.80;;;3.70;;
44169;SDS011;29836;52.286;9.576;2023-01-10T15:06:10;11.00;;;3.15;;
44169;SDS011;29836;52.286;9.576;2023-01-10T15:08:35;12.93;;;3.17;;
44169;SDS011;29836;52.286;9.576;2023-01-10T15:11:02;17.27;;;4.28;;
44169;SDS011;29836;52.286;9.576;2023-01-10T15:13:30;11.82;;;4.38;;
44169;SDS011;29836;52.286;9.576;2023-01-10T15:16:00;7.55;;;3.45;;
44169;SDS011;29836;52.286;9.576;2023-01-10T15:18:36;15.90;;;5.15;;
44169;SDS011;29836;52.286;9.576;2023-01-10T15:21:05;12.48;;;4.55;;
44169;SDS011;29836;52.286;9.576;2023-01-10T15:23:41;21.35;;;7.18;;
44169;SDS011;29836;52.286;9.576;2023-01-10T15:26:09;18.20;;;5.90;;
44169;SDS011;29836;52.286;9.576;2023-01-10T15:28:40;19.88;;;5.55;;
44169;SDS011;29836;52.286;9.576;2023-01-10T15:31:13;12.27;;;4.43;;
44169;SDS011;29836;52.286;9.576;2023-01-10T15:33:41;16.00;;;4.95;;
44169;SDS011;29836;52.286;9.576;2023-01-10T15:36:13;11.68;;;4.00;;
44169;SDS011;29836;52.286;9.576;2023-01-10T15:38:41;10.75;;;3.20;;
44169;SDS011;29836;52.286;9.576;2023-01-10T15:41:14;6.63;;;2.63;;
44169;SDS011;29836;52.286;9.576;2023-01-10T15:43:42;7.22;;;2.97;;
44169;SDS011;29836;52.286;9.576;2023-01-10T15:46:15;19.27;;;3.47;;
44169;SDS011;29836;52.286;9.576;2023-01-10T15:48:52;10.10;;;3.63;;
44169;SDS011;29836;52.286;9.576;2023-01-10T15:56:30;14.85;;;4.55;;
44169;SDS011;29836;52.286;9.576;2023-01-10T15:59:02;8.13;;;2.42;;
44169;SDS011;29836;52.286;9.576;2023-01-10T16:01:30;5.82;;;3.05;;
44169;SDS011;29836;52.286;9.576;2023-01-10T16:03:57;12.93;;;4.43;;
44169;SDS011;29836;52.286;9.576;2023-01-10T16:06:30;11.55;;;2.65;;
44169;SDS011;29836;52.286;9.576;2023-01-10T16:08:58;7.47;;;2.60;;
44169;SDS011;29836;52.286;9.576;2023-01-10T16:11:31;4.88;;;2.17;;